Time;durP1;ratioP1;P1;durP2;ratioP2;P2;SDS_P1;SDS_P2;PMS_P1;PMS_P2;Temp;Humidity;BMP_temperature;BMP_pressure;BME280_temperature;BME280_humidity;BME280_pressure;Samples;Min_cycle;Max_cycle;Signal;HPM_P1;HPM_P2
2023/10/29 00:00:24;;;;;;;1.92;1.02;;;22.80;68.90;;;;;;5094029;28;20024;-34
2023/10/29 00:02:50;;;;;;;1.33;1.02;;;22.80;68.20;;;;;;5090938;28;20122;-35
2023/10/29 00:05:18;;;;;;;1.25;1.00;;;22.70;68.10;;;;;;5094730;28;20097;-34
2023/10/29 00:07:44;;;;;;;1.23;1.13;;;22.80;68.10;;;;;;5094757;28;20031;-35
2023/10/29 00:10:10;;;;;;;1.45;0.95;;;22.70;68.00;;;;;;5092495;28;20500;-34
2023/10/29 00:12:37;;;;;;;2.53;1.20;;;22.70;68.00;;;;;;5085022;28;20035;-34
2023/10/29 00:15:05;;;;;;;1.05;0.90;;;22.70;68.10;;;;;;5093442;28;20024;-33
2023/10/29 00:17:31;;;;;;;3.28;1.10;;;22.70;68.20;;;;;;5095574;28;20028;-34
2023/10/29 00:19:59;;;;;;;1.27;1.17;;;22.70;68.10;;;;;;5102491;28;20024;-35
2023/10/29 00:22:27;;;;;;;1.70;1.13;;;22.70;68.20;;;;;;5092498;28;20049;-34
2023/10/29 00:24:53;;;;;;;1.52;1.05;;;22.70;68.00;;;;;;5099873;28;20031;-34
2023/10/29 00:27:19;;;;;;;3.63;1.10;;;22.70;67.90;;;;;;5085573;28;20568;-34
2023/10/29 00:29:46;;;;;;;2.10;1.10;;;22.70;67.90;;;;;;5085266;28;20020;-34
2023/10/29 00:32:14;;;;;;;1.10;1.00;;;22.70;67.80;;;;;;5093961;28;20033;-34
2023/10/29 00:34:40;;;;;;;1.48;1.00;;;22.60;67.70;;;;;;5096272;28;20651;-34
2023/10/29 00:37:06;;;;;;;1.90;1.25;;;22.60;67.70;;;;;;5096176;28;20028;-34
2023/10/29 00:39:32;;;;;;;1.45;1.25;;;22.60;67.60;;;;;;5092032;28;20021;-34
2023/10/29 00:41:59;;;;;;;1.30;1.00;;;22.60;67.60;;;;;;5092266;28;20099;-33
2023/10/29 00:44:25;;;;;;;1.40;1.20;;;22.60;67.60;;;;;;5098061;28;20051;-34
2023/10/29 00:46:51;;;;;;;1.77;1.13;;;22.60;67.60;;;;;;5100008;28;20082;-34
2023/10/29 00:49:17;;;;;;;1.25;1.15;;;22.60;67.60;;;;;;5101833;28;20077;-34
2023/10/29 00:51:44;;;;;;;1.90;1.20;;;22.60;67.40;;;;;;5104799;28;20716;-34
2023/10/29 00:54:10;;;;;;;1.83;1.23;;;22.60;67.40;;;;;;5094344;28;20039;-34
2023/10/29 00:56:36;;;;;;;1.80;1.20;;;22.50;67.30;;;;;;5091713;28;20054;-34
2023/10/29 00:59:03;;;;;;;1.38;1.20;;;22.50;67.30;;;;;;5091663;28;20017;-34
2023/10/29 01:01:29;;;;;;;1.77;1.15;;;22.50;67.20;;;;;;5095004;28;20027;-34
2023/10/29 01:03:55;;;;;;;1.90;1.33;;;22.50;67.20;;;;;;5101876;28;20055;-34
2023/10/29 01:06:21;;;;;;;1.13;0.93;;;22.50;67.30;;;;;;5099291;28;20052;-35
2023/10/29 01:08:47;;;;;;;1.50;1.10;;;22.50;67.20;;;;;;5102469;28;20032;-34
2023/10/29 01:11:13;;;;;;;2.22;1.40;;;22.50;67.20;;;;;;5087111;28;20043;-34
2023/10/29 01:13:39;;;;;;;1.42;1.20;;;22.40;67.10;;;;;;5090042;28;20035;-34
2023/10/29 01:16:06;;;;;;;2.00;1.27;;;22.40;67.10;;;;;;5092264;28;20043;-34
2023/10/29 01:18:32;;;;;;;1.80;1.20;;;22.40;67.20;;;;;;5099957;28;20380;-34
2023/10/29 01:20:59;;;;;;;2.77;1.33;;;22.40;67.10;;;;;;5098365;28;20028;-34
2023/10/29 01:23:26;;;;;;;1.83;1.37;;;22.40;67.30;;;;;;5105568;28;20028;-33
2023/10/29 01:25:52;;;;;;;1.38;1.08;;;22.40;67.20;;;;;;5095011;28;20282;-33
2023/10/29 01:28:19;;;;;;;1.55;1.27;;;22.40;67.20;;;;;;5092851;28;20440;-34
2023/10/29 01:30:45;;;;;;;1.98;1.25;;;22.40;67.20;;;;;;5096347;28;20017;-34
2023/10/29 01:33:11;;;;;;;2.17;1.10;;;22.30;67.10;;;;;;5098224;28;20103;-34
2023/10/29 01:35:37;;;;;;;1.42;1.00;;;22.30;67.20;;;;;;5093514;28;20027;-34
2023/10/29 01:38:03;;;;;;;1.42;1.33;;;22.30;67.20;;;;;;5095327;28;20050;-33
2023/10/29 01:40:29;;;;;;;1.98;1.33;;;22.30;67.20;;;;;;5097922;28;20025;-34
2023/10/29 01:42:55;;;;;;;2.63;1.40;;;22.30;67.20;;;;;;5091246;28;20053;-34
2023/10/29 01:45:22;;;;;;;1.80;1.40;;;22.30;67.20;;;;;;5084913;28;20028;-34
2023/10/29 01:47:48;;;;;;;1.30;1.10;;;22.30;67.20;;;;;;5097008;28;20028;-34
2023/10/29 01:50:15;;;;;;;1.92;1.40;;;22.30;67.90;;;;;;5094182;28;20040;-34
2023/10/29 01:52:41;;;;;;;2.20;1.50;;;22.20;67.10;;;;;;5095548;28;20068;-34
2023/10/29 01:55:07;;;;;;;1.40;1.30;;;22.20;67.10;;;;;;5089186;28;20096;-34
2023/10/29 01:57:35;;;;;;;2.08;1.30;;;22.20;67.20;;;;;;5087968;28;20045;-33
2023/10/29 02:00:02;;;;;;;1.80;1.33;;;22.20;67.20;;;;;;5096480;28;20077;-35
2023/10/29 02:02:29;;;;;;;1.45;1.02;;;22.20;67.20;;;;;;5093844;28;20032;-34
2023/10/29 02:04:55;;;;;;;1.38;1.27;;;22.20;67.20;;;;;;5093234;28;20500;-34
2023/10/29 02:07:21;;;;;;;1.92;1.40;;;22.10;67.20;;;;;;5098256;28;20032;-34
2023/10/29 02:09:47;;;;;;;1.92;1.40;;;22.10;67.20;;;;;;5098596;28;20050;-34
2023/10/29 02:12:14;;;;;;;2.05;1.30;;;22.10;67.10;;;;;;5099497;28;20031;-34
2023/10/29 02:14:41;;;;;;;1.85;1.40;;;22.10;67.20;;;;;;5100994;28;20024;-34
2023/10/29 02:17:07;;;;;;;2.35;1.20;;;22.10;67.30;;;;;;5099769;28;20095;-34
2023/10/29 02:19:33;;;;;;;2.63;1.50;;;22.10;67.30;;;;;;5100432;28;20024;-34
2023/10/29 02:21:59;;;;;;;2.20;1.50;;;22.00;67.20;;;;;;5104150;28;20024;-33
2023/10/29 02:24:25;;;;;;;1.92;1.30;;;22.00;67.20;;;;;;5090790;28;20115;-34
2023/10/29 02:26:51;;;;;;;1.83;1.52;;;22.00;67.20;;;;;;5097488;28;20035;-34
2023/10/29 02:29:17;;;;;;;1.98;1.50;;;22.00;67.20;;;;;;5090449;28;20029;-34
2023/10/29 02:31:43;;;;;;;1.65;1.48;;;22.00;67.30;;;;;;5090283;28;20039;-34
2023/10/29 02:34:11;;;;;;;2.17;1.50;;;22.00;67.30;;;;;;5094457;28;20024;-33
2023/10/29 02:36:37;;;;;;;2.20;1.52;;;22.00;67.30;;;;;;5085990;28;20036;-34
2023/10/29 02:39:03;;;;;;;2.47;1.55;;;22.00;67.30;;;;;;5089749;28;20024;-34
2023/10/29 02:41:31;;;;;;;1.87;1.53;;;21.90;67.30;;;;;;5086799;28;20759;-34
2023/10/29 02:43:58;;;;;;;1.92;1.60;;;21.90;67.30;;;;;;5092790;28;20075;-34
2023/10/29 02:46:25;;;;;;;2.03;1.48;;;21.90;67.30;;;;;;5093190;28;20050;-34
2023/10/29 02:48:51;;;;;;;2.10;1.70;;;21.90;67.30;;;;;;5088034;28;20051;-33
2023/10/29 02:51:17;;;;;;;1.87;1.63;;;21.90;67.40;;;;;;5086200;28;20028;-33
2023/10/29 02:53:43;;;;;;;2.40;1.80;;;21.90;67.40;;;;;;5091953;28;20339;-34
2023/10/29 02:56:10;;;;;;;3.22;1.55;;;21.80;67.30;;;;;;5090131;28;20032;-33
2023/10/29 02:58:36;;;;;;;2.50;1.47;;;21.80;67.30;;;;;;5090828;28;20092;-34
2023/10/29 03:01:08;;;;;;;2.20;1.48;;;21.80;67.40;;;;;;5097558;28;20031;-33
2023/10/29 03:03:35;;;;;;;2.80;1.88;;;21.80;67.40;;;;;;5099915;28;20036;-34
2023/10/29 03:06:08;;;;;;;2.17;1.58;;;21.80;67.40;;;;;;5094349;28;20028;-33
2023/10/29 03:08:34;;;;;;;2.47;1.70;;;21.80;67.40;;;;;;5091765;28;20104;-34
2023/10/29 03:11:00;;;;;;;2.17;1.85;;;21.80;67.50;;;;;;5101591;28;20063;-34
2023/10/29 03:13:26;;;;;;;2.00;1.50;;;21.70;67.40;;;;;;5090665;28;20056;-34
2023/10/29 03:15:53;;;;;;;2.45;1.67;;;21.70;67.50;;;;;;5097812;28;20393;-34
2023/10/29 03:18:20;;;;;;;2.55;1.77;;;21.70;67.50;;;;;;5104016;28;20059;-33
2023/10/29 03:20:46;;;;;;;2.40;1.83;;;21.70;67.50;;;;;;5097913;28;20059;-33
2023/10/29 03:23:12;;;;;;;3.70;1.67;;;21.70;67.50;;;;;;5099337;28;20131;-34
2023/10/29 03:25:39;;;;;;;2.17;1.70;;;21.60;67.40;;;;;;5104546;28;20054;-33
2023/10/29 03:28:05;;;;;;;2.08;1.55;;;21.70;67.60;;;;;;5095605;28;20039;-33
2023/10/29 03:30:31;;;;;;;2.13;1.52;;;21.60;67.50;;;;;;5086282;28;20028;-34
2023/10/29 03:32:57;;;;;;;2.30;1.75;;;21.60;67.60;;;;;;5099251;28;20052;-33
2023/10/29 03:35:26;;;;;;;2.50;1.60;;;21.60;67.60;;;;;;5091563;28;20039;-35
2023/10/29 03:37:52;;;;;;;3.03;1.83;;;21.60;67.60;;;;;;5091880;28;20035;-33
2023/10/29 03:40:18;;;;;;;2.75;1.80;;;21.60;67.60;;;;;;5087943;28;20028;-33
2023/10/29 03:42:45;;;;;;;2.13;1.70;;;21.60;67.70;;;;;;5090849;28;20066;-34
2023/10/29 03:45:11;;;;;;;1.98;1.80;;;21.50;67.60;;;;;;5095327;28;20053;-34
2023/10/29 03:47:57;;;;;;;2.95;2.03;;;21.50;67.70;;;;;;5033789;28;20868;-33
2023/10/29 03:50:23;;;;;;;2.38;1.70;;;21.50;67.70;;;;;;5040137;28;20060;-33
2023/10/29 03:52:49;;;;;;;4.00;1.85;;;21.50;67.70;;;;;;5038429;28;20045;-33
2023/10/29 03:55:16;;;;;;;2.70;1.73;;;21.50;67.80;;;;;;5032528;28;20040;-34
2023/10/29 03:57:42;;;;;;;4.10;1.70;;;21.50;67.90;;;;;;5034150;28;20025;-34
2023/10/29 04:00:09;;;;;;;2.22;1.70;;;21.40;67.70;;;;;;5040375;28;20046;-34
2023/10/29 04:02:35;;;;;;;2.75;1.95;;;21.50;67.90;;;;;;5024602;28;20037;-35
2023/10/29 04:05:02;;;;;;;2.42;1.80;;;21.40;67.80;;;;;;5032988;28;20054;-34
2023/10/29 04:07:29;;;;;;;1.98;1.67;;;21.40;67.90;;;;;;5032019;28;20030;-34
2023/10/29 04:09:55;;;;;;;2.53;1.73;;;21.40;67.90;;;;;;5034308;28;20044;-34
2023/10/29 04:12:21;;;;;;;2.03;1.70;;;21.40;68.00;;;;;;5029470;28;20034;-34
2023/10/29 04:14:47;;;;;;;2.10;1.70;;;21.40;67.90;;;;;;5027220;28;20030;-34
2023/10/29 04:17:13;;;;;;;2.80;1.85;;;21.40;68.10;;;;;;5031660;28;20912;-34
2023/10/29 04:19:39;;;;;;;2.92;1.92;;;21.30;67.90;;;;;;5030375;28;20125;-34
2023/10/29 04:22:05;;;;;;;2.97;2.10;;;21.40;68.00;;;;;;5032958;28;20440;-35
2023/10/29 04:24:33;;;;;;;3.10;2.10;;;21.30;68.10;;;;;;5040039;28;20075;-34
2023/10/29 04:26:59;;;;;;;2.88;2.22;;;21.30;68.00;;;;;;5093256;28;20020;-35
2023/10/29 04:29:25;;;;;;;2.13;1.73;;;21.30;68.00;;;;;;5092003;28;20036;-34
2023/10/29 04:31:51;;;;;;;2.85;2.10;;;21.30;68.00;;;;;;5084821;28;20032;-34
2023/10/29 04:34:18;;;;;;;2.70;2.00;;;21.30;68.00;;;;;;5095045;28;20090;-34
2023/10/29 04:36:48;;;;;;;2.35;1.95;;;21.30;68.10;;;;;;5095897;28;20032;-35
2023/10/29 04:39:14;;;;;;;1.98;1.75;;;21.20;68.10;;;;;;5094015;28;20032;-34
2023/10/29 04:41:40;;;;;;;2.83;1.93;;;21.20;68.10;;;;;;5096266;28;20032;-33
2023/10/29 04:44:07;;;;;;;3.13;2.10;;;21.20;68.10;;;;;;5093779;28;20044;-33
2023/10/29 04:46:33;;;;;;;5.25;2.40;;;21.20;68.10;;;;;;5087789;28;20037;-33
2023/10/29 04:48:59;;;;;;;3.25;2.10;;;21.20;68.20;;;;;;5094604;28;20028;-34
2023/10/29 04:51:26;;;;;;;2.67;1.90;;;21.20;68.90;;;;;;5094225;28;20438;-34
2023/10/29 04:53:52;;;;;;;3.30;1.80;;;21.20;68.30;;;;;;5095477;28;20021;-34
2023/10/29 04:56:18;;;;;;;2.25;1.70;;;21.10;68.30;;;;;;5096635;28;20032;-34
2023/10/29 04:58:44;;;;;;;2.55;2.08;;;21.10;68.20;;;;;;5087119;28;20008;-34
2023/10/29 05:01:11;;;;;;;3.10;2.00;;;21.10;68.30;;;;;;5086161;28;20662;-34
2023/10/29 05:03:37;;;;;;;1.88;1.67;;;21.10;68.30;;;;;;5093308;28;20036;-33
2023/10/29 05:06:04;;;;;;;3.15;1.92;;;21.10;68.30;;;;;;5099328;28;20023;-34
2023/10/29 05:08:30;;;;;;;2.63;2.05;;;21.10;68.40;;;;;;5092035;28;20040;-34
2023/10/29 05:10:56;;;;;;;2.85;1.83;;;21.10;68.40;;;;;;5090680;28;20029;-34
2023/10/29 05:13:23;;;;;;;2.80;2.15;;;21.00;68.30;;;;;;5088953;28;20036;-34
2023/10/29 05:15:49;;;;;;;2.42;1.90;;;21.00;68.30;;;;;;5098073;28;20024;-33
2023/10/29 05:18:15;;;;;;;2.90;2.35;;;21.00;68.40;;;;;;5087771;28;20031;-34
2023/10/29 05:20:41;;;;;;;2.10;1.90;;;21.00;68.40;;;;;;5101302;28;20022;-33
2023/10/29 05:23:08;;;;;;;2.92;1.95;;;21.00;68.40;;;;;;5101291;28;20040;-33
2023/10/29 05:25:36;;;;;;;3.58;2.00;;;21.00;68.40;;;;;;5087750;28;20024;-33
2023/10/29 05:28:02;;;;;;;3.08;2.35;;;21.00;68.40;;;;;;5098398;28;20039;-34
2023/10/29 05:30:28;;;;;;;2.88;2.05;;;21.00;68.50;;;;;;5090437;28;20029;-33
2023/10/29 05:32:54;;;;;;;2.55;2.15;;;21.00;68.50;;;;;;5091084;28;20143;-33
2023/10/29 05:35:21;;;;;;;2.45;1.90;;;20.90;68.40;;;;;;5083898;28;20020;-34
2023/10/29 05:37:47;;;;;;;2.58;2.10;;;20.90;68.50;;;;;;5086297;28;20047;-34
2023/10/29 05:40:14;;;;;;;2.45;1.98;;;20.90;68.50;;;;;;5091707;28;20464;-34
2023/10/29 05:42:40;;;;;;;;;;;20.90;68.50;;;;;;5094866;28;20052;-34
2023/10/29 05:45:07;;;;;;;3.30;2.05;;;20.90;68.50;;;;;;5093032;28;19924;-34
2023/10/29 05:47:33;;;;;;;3.63;1.90;;;20.90;68.60;;;;;;5097883;28;20028;-34
2023/10/29 05:49:59;;;;;;;3.25;2.33;;;20.90;68.60;;;;;;5097600;28;20137;-34
2023/10/29 05:52:26;;;;;;;2.45;1.70;;;20.80;68.60;;;;;;5102065;28;20238;-34
2023/10/29 05:54:53;;;;;;;3.00;2.08;;;20.80;68.60;;;;;;5101304;28;20115;-34
2023/10/29 05:57:19;;;;;;;2.30;2.08;;;20.90;68.70;;;;;;5100403;28;20080;-34
2023/10/29 05:59:45;;;;;;;3.75;2.17;;;20.80;68.60;;;;;;5102332;28;20035;-37
2023/10/29 06:02:11;;;;;;;3.75;2.22;;;20.80;68.60;;;;;;5096367;28;20032;-34
2023/10/29 06:04:38;;;;;;;3.03;2.00;;;20.80;68.70;;;;;;5100326;28;20036;-34
2023/10/29 06:07:04;;;;;;;2.65;2.17;;;20.80;68.70;;;;;;5091665;28;20062;-34
2023/10/29 06:09:30;;;;;;;3.13;2.20;;;20.80;68.70;;;;;;5087718;28;20020;-34
2023/10/29 06:11:56;;;;;;;4.57;2.00;;;20.80;68.70;;;;;;5094261;28;20092;-34
2023/10/29 06:14:23;;;;;;;2.22;1.85;;;20.70;68.70;;;;;;5100117;28;20028;-34
2023/10/29 06:16:56;;;;;;;2.72;2.00;;;20.70;68.70;;;;;;5092798;28;20551;-33
2023/10/29 06:19:23;;;;;;;4.85;2.28;;;20.70;68.70;;;;;;5093333;28;20043;-34
2023/10/29 06:21:49;;;;;;;2.28;2.00;;;20.70;68.80;;;;;;5101310;28;20052;-34
2023/10/29 06:24:15;;;;;;;2.93;1.93;;;20.70;68.80;;;;;;5094509;28;20067;-34
2023/10/29 06:26:41;;;;;;;3.15;2.10;;;20.70;68.80;;;;;;5100852;28;20024;-34
2023/10/29 06:29:08;;;;;;;3.55;1.90;;;20.70;68.80;;;;;;5085007;28;20087;-34
2023/10/29 06:31:35;;;;;;;2.97;2.13;;;20.70;68.80;;;;;;5092730;28;20052;-33
2023/10/29 06:34:02;;;;;;;3.17;2.20;;;20.70;68.80;;;;;;5099926;28;20423;-33
2023/10/29 06:36:31;;;;;;;2.35;2.05;;;20.70;68.80;;;;;;5084571;28;20364;-33
2023/10/29 06:38:57;;;;;;;2.33;1.90;;;20.60;68.80;;;;;;5082737;28;20052;-33
2023/10/29 06:41:23;;;;;;;2.75;2.10;;;20.60;68.80;;;;;;5101641;28;20067;-34
2023/10/29 06:43:49;;;;;;;2.97;1.88;;;20.60;68.90;;;;;;5096491;28;20048;-33
2023/10/29 06:46:16;;;;;;;4.47;2.38;;;20.60;68.90;;;;;;5096236;28;20043;-33
2023/10/29 06:48:42;;;;;;;3.65;2.20;;;20.60;68.90;;;;;;5094940;28;20134;-33
2023/10/29 06:51:11;;;;;;;2.88;2.10;;;20.60;68.90;;;;;;5101633;28;20043;-33
2023/10/29 06:53:37;;;;;;;3.85;2.00;;;20.60;69.00;;;;;;5104672;28;20016;-34
2023/10/29 06:56:04;;;;;;;2.80;2.10;;;20.60;68.90;;;;;;5094664;28;20560;-34
2023/10/29 06:58:30;;;;;;;3.40;1.93;;;20.60;69.00;;;;;;5104454;28;20028;-33
2023/10/29 07:01:08;;;;;;;2.53;2.00;;;20.60;69.00;;;;;;5104423;28;20276;-33
2023/10/29 07:03:35;;;;;;;2.20;2.00;;;20.60;69.00;;;;;;5100586;28;20033;-34
2023/10/29 07:06:11;;;;;;;2.47;2.17;;;20.60;69.10;;;;;;5102388;28;20031;-33
2023/10/29 07:08:37;;;;;;;3.15;2.20;;;20.50;69.00;;;;;;5103749;28;20024;-33
2023/10/29 07:11:04;;;;;;;2.87;2.30;;;20.50;69.00;;;;;;5103353;28;20024;-34
2023/10/29 07:13:30;;;;;;;2.97;2.20;;;20.50;69.00;;;;;;5103784;28;20856;-34
2023/10/29 07:15:57;;;;;;;2.42;1.95;;;20.50;69.70;;;;;;5097388;28;20062;-34
2023/10/29 07:18:23;;;;;;;3.22;2.15;;;20.50;69.00;;;;;;5097337;28;20028;-34
2023/10/29 07:20:53;;;;;;;3.38;2.35;;;20.50;69.00;;;;;;5097680;28;20033;-34
2023/10/29 07:23:20;;;;;;;2.53;1.85;;;20.50;69.00;;;;;;5101607;28;20073;-34
2023/10/29 07:25:49;;;;;;;2.63;2.00;;;20.50;69.00;;;;;;5099542;28;20031;-34
2023/10/29 07:28:16;;;;;;;2.75;2.10;;;20.50;69.10;;;;;;5103149;28;20040;-34
2023/10/29 07:30:42;;;;;;;2.42;1.95;;;20.50;69.00;;;;;;5104004;28;20550;-34
2023/10/29 07:33:10;;;;;;;2.67;2.05;;;20.40;69.10;;;;;;5102650;28;20064;-34
2023/10/29 07:35:39;;;;;;;2.38;2.17;;;20.40;69.10;;;;;;5103090;28;20312;-34
2023/10/29 07:38:06;;;;;;;1.80;1.55;;;20.40;69.10;;;;;;5097206;28;20032;-35
2023/10/29 07:40:32;;;;;;;2.60;2.05;;;20.40;69.00;;;;;;5092353;28;20029;-33
2023/10/29 07:42:58;;;;;;;3.03;2.25;;;20.40;69.10;;;;;;5099000;28;20071;-33
2023/10/29 07:45:24;;;;;;;3.55;1.92;;;20.40;69.10;;;;;;5091074;28;20035;-34
2023/10/29 07:47:51;;;;;;;2.60;2.30;;;20.40;69.10;;;;;;5096226;28;20020;-34
2023/10/29 07:50:17;;;;;;;2.30;2.10;;;20.40;69.10;;;;;;5093372;28;20092;-34
2023/10/29 07:52:43;;;;;;;2.13;1.93;;;20.40;69.20;;;;;;5093836;28;20087;-34
2023/10/29 07:55:09;;;;;;;3.25;2.20;;;20.40;69.20;;;;;;5094164;28;20035;-34
2023/10/29 07:57:38;;;;;;;3.03;1.90;;;20.40;69.20;;;;;;5103344;28;20020;-34
2023/10/29 08:00:07;;;;;;;2.55;2.35;;;20.40;69.20;;;;;;5096365;28;20032;-34
2023/10/29 08:02:33;;;;;;;4.20;2.40;;;20.30;69.20;;;;;;5097159;28;20032;-33
2023/10/29 08:04:59;;;;;;;3.08;2.30;;;20.30;69.20;;;;;;5101773;28;20028;-34
2023/10/29 08:07:27;;;;;;;2.55;2.22;;;20.30;69.20;;;;;;5089353;28;20035;-34
2023/10/29 08:09:53;;;;;;;3.17;2.20;;;20.30;69.20;;;;;;5098288;28;20039;-34
2023/10/29 08:12:20;;;;;;;3.00;2.17;;;20.30;69.20;;;;;;5103072;28;20024;-33
2023/10/29 08:14:46;;;;;;;3.75;2.33;;;20.30;69.20;;;;;;5089984;28;20032;-34
2023/10/29 08:17:17;;;;;;;2.08;1.88;;;20.30;69.20;;;;;;5095235;28;20056;-34
2023/10/29 08:19:44;;;;;;;2.67;2.28;;;20.30;69.20;;;;;;5102939;28;20028;-34
2023/10/29 08:22:10;;;;;;;2.50;2.15;;;20.30;69.20;;;;;;5102407;28;20032;-34
2023/10/29 08:24:36;;;;;;;2.45;2.25;;;20.30;69.30;;;;;;5102908;28;20043;-34
2023/10/29 08:27:02;;;;;;;2.88;2.40;;;20.30;69.20;;;;;;5094188;28;20031;-34
2023/10/29 08:29:29;;;;;;;2.67;2.15;;;20.30;69.30;;;;;;5096756;28;20036;-34
2023/10/29 08:31:55;;;;;;;2.70;2.07;;;20.30;69.30;;;;;;5101800;28;20030;-34
2023/10/29 08:34:21;;;;;;;2.35;2.15;;;20.30;69.30;;;;;;5098695;28;20510;-34
2023/10/29 08:36:47;;;;;;;3.33;2.03;;;20.20;69.30;;;;;;5097397;28;20055;-34
2023/10/29 08:39:16;;;;;;;2.90;2.22;;;20.20;69.30;;;;;;5093926;28;20036;-34
2023/10/29 08:41:42;;;;;;;2.72;2.17;;;20.20;69.30;;;;;;5084568;28;20043;-35
2023/10/29 08:44:08;;;;;;;3.35;2.50;;;20.20;69.30;;;;;;5092212;28;20089;-35
2023/10/29 08:46:34;;;;;;;4.65;2.45;;;20.20;69.30;;;;;;5090647;28;20035;-34
2023/10/29 08:49:01;;;;;;;3.03;2.13;;;20.20;69.30;;;;;;5087422;28;20055;-34
2023/10/29 08:51:27;;;;;;;2.80;2.22;;;20.20;69.40;;;;;;5099445;28;20054;-34
2023/10/29 08:53:53;;;;;;;2.30;2.10;;;20.20;69.40;;;;;;5091715;28;20024;-34
2023/10/29 08:56:19;;;;;;;3.28;2.22;;;20.20;69.40;;;;;;5093711;28;20037;-34
2023/10/29 08:58:46;;;;;;;2.70;2.05;;;20.20;69.40;;;;;;5085458;28;20021;-34
2023/10/29 09:01:12;;;;;;;3.00;2.38;;;20.20;69.40;;;;;;5092557;28;20028;-34
2023/10/29 09:03:38;;;;;;;2.70;2.15;;;20.20;69.40;;;;;;5095588;28;20044;-34
2023/10/29 09:06:05;;;;;;;2.95;2.30;;;20.20;69.40;;;;;;5096813;28;20028;-34
2023/10/29 09:08:36;;;;;;;2.70;2.40;;;20.20;69.40;;;;;;5096886;28;20035;-34
2023/10/29 09:11:03;;;;;;;2.40;2.20;;;20.20;69.50;;;;;;5094945;28;20539;-34
2023/10/29 09:13:30;;;;;;;2.90;2.43;;;20.10;69.40;;;;;;5087342;28;20032;-34
2023/10/29 09:15:56;;;;;;;2.58;2.33;;;20.10;69.40;;;;;;5094910;28;20033;-34
2023/10/29 09:18:22;;;;;;;4.88;2.42;;;20.10;69.40;;;;;;5093794;28;20024;-34
2023/10/29 09:20:49;;;;;;;3.05;2.35;;;20.10;69.40;;;;;;5091200;28;20496;-34
2023/10/29 09:23:16;;;;;;;2.30;2.05;;;20.10;69.40;;;;;;5091852;28;20036;-34
2023/10/29 09:25:45;;;;;;;2.28;2.08;;;20.10;69.50;;;;;;5098186;28;20027;-34
2023/10/29 09:28:13;;;;;;;2.90;2.40;;;20.10;69.40;;;;;;5091536;28;20052;-34
2023/10/29 09:30:40;;;;;;;3.97;2.40;;;20.10;69.50;;;;;;5084493;28;20037;-33
2023/10/29 09:33:07;;;;;;;4.63;2.30;;;20.10;69.50;;;;;;5099302;28;20050;-33
2023/10/29 09:35:37;;;;;;;2.92;2.53;;;20.10;69.50;;;;;;5096875;28;20644;-34
2023/10/29 09:38:04;;;;;;;3.90;2.50;;;20.10;69.50;;;;;;5096277;28;20059;-33
2023/10/29 09:40:30;;;;;;;2.28;2.05;;;20.10;69.50;;;;;;5094993;28;20028;-34
2023/10/29 09:42:56;;;;;;;2.70;2.40;;;20.00;69.50;;;;;;5085154;28;20066;-33
2023/10/29 09:45:25;;;;;;;3.22;2.17;;;20.00;69.50;;;;;;5091367;28;20046;-33
2023/10/29 09:47:54;;;;;;;2.83;2.50;;;20.00;69.50;;;;;;5090834;28;20032;-33
2023/10/29 09:50:23;;;;;;;2.97;2.20;;;20.00;69.60;;;;;;5089710;28;20028;-33
2023/10/29 09:52:50;;;;;;;2.97;2.33;;;20.00;69.60;;;;;;5101355;28;20053;-34
2023/10/29 09:55:17;;;;;;;3.60;2.45;;;20.00;69.60;;;;;;5091585;28;20047;-33
2023/10/29 09:57:44;;;;;;;3.20;2.40;;;20.00;69.60;;;;;;5088779;28;20039;-34
2023/10/29 10:00:11;;;;;;;2.60;2.40;;;20.00;69.60;;;;;;5099895;28;20032;-33
2023/10/29 10:02:53;;;;;;;3.00;2.55;;;20.00;69.60;;;;;;5088275;28;20036;-33
2023/10/29 10:05:21;;;;;;;2.85;2.42;;;20.00;69.70;;;;;;5092123;28;20032;-33
2023/10/29 10:07:48;;;;;;;2.17;1.98;;;20.00;69.70;;;;;;5097412;28;20043;-34
2023/10/29 10:10:14;;;;;;;2.78;2.47;;;20.00;69.70;;;;;;5084405;28;20060;-34
2023/10/29 10:12:48;;;;;;;3.60;2.97;;;20.00;70.40;;;;;;5095487;28;20523;-34
2023/10/29 10:15:16;;;;;;;4.18;2.50;;;19.90;69.70;;;;;;5091266;28;20769;-33
2023/10/29 10:17:49;;;;;;;2.92;2.30;;;19.90;69.70;;;;;;5099722;28;20036;-33
2023/10/29 10:20:19;;;;;;;2.88;2.50;;;19.90;69.70;;;;;;5088237;28;20112;-33
2023/10/29 10:22:45;;;;;;;4.00;2.72;;;19.90;69.70;;;;;;5104902;28;20055;-33
2023/10/29 10:25:18;;;;;;;3.60;2.38;;;19.90;69.70;;;;;;5097358;28;20071;-33
2023/10/29 10:27:49;;;;;;;3.03;2.47;;;19.90;69.70;;;;;;5099249;28;20036;-33
2023/10/29 10:30:39;;;;;;;3.13;2.50;;;19.90;69.70;;;;;;5089636;28;20039;-34
2023/10/29 10:33:21;;;;;;;3.67;2.50;;;19.90;69.80;;;;;;5098584;28;20028;-33
2023/10/29 10:35:51;;;;;;;3.05;2.50;;;19.90;69.80;;;;;;5098788;28;20052;-33
2023/10/29 10:38:19;;;;;;;3.17;2.53;;;19.90;69.80;;;;;;5095616;28;20162;-33
2023/10/29 10:40:46;;;;;;;3.08;2.30;;;19.90;69.90;;;;;;5094940;28;20024;-33
2023/10/29 10:43:18;;;;;;;3.38;2.63;;;19.90;69.90;;;;;;5094796;28;20127;-34
2023/10/29 10:45:44;;;;;;;3.03;2.58;;;19.90;69.90;;;;;;5089131;28;20021;-34
2023/10/29 10:48:11;;;;;;;3.83;2.35;;;19.80;70.60;;;;;;5070615;28;20135;-34
2023/10/29 10:50:38;;;;;;;2.58;2.22;;;19.90;70.00;;;;;;5092427;28;20064;-34
2023/10/29 10:53:04;;;;;;;3.22;2.58;;;19.80;69.90;;;;;;5097332;28;20036;-34
2023/10/29 10:55:30;;;;;;;3.38;2.53;;;19.80;70.00;;;;;;5096041;28;20032;-34
2023/10/29 10:57:56;;;;;;;2.92;2.60;;;19.80;70.00;;;;;;5095211;28;20033;-34
2023/10/29 11:00:22;;;;;;;3.72;2.40;;;19.80;70.00;;;;;;5098851;28;20027;-34
2023/10/29 11:02:50;;;;;;;3.03;2.33;;;19.80;70.00;;;;;;5099552;28;20040;-34
2023/10/29 11:05:16;;;;;;;3.03;2.33;;;19.80;70.00;;;;;;5100574;28;20074;-34
2023/10/29 11:07:43;;;;;;;4.35;2.67;;;19.80;70.00;;;;;;5097511;28;20107;-33
2023/10/29 11:10:12;;;;;;;3.00;2.53;;;19.70;70.00;;;;;;5093566;28;20047;-33
2023/10/29 11:12:39;;;;;;;3.45;2.45;;;19.80;70.10;;;;;;5098403;28;20031;-34
2023/10/29 11:15:15;;;;;;;2.72;2.50;;;19.70;70.00;;;;;;5095925;28;20047;-34
2023/10/29 11:17:58;;;;;;;3.03;2.65;;;19.70;70.00;;;;;;5092460;28;20139;-34
2023/10/29 11:20:37;;;;;;;3.17;2.78;;;19.70;70.00;;;;;;5094436;28;20044;-33
2023/10/29 11:23:07;;;;;;;2.92;2.60;;;19.70;70.00;;;;;;5101552;28;20042;-34
2023/10/29 11:25:33;;;;;;;2.55;2.35;;;19.70;70.10;;;;;;5093051;28;20036;-33
2023/10/29 11:28:01;;;;;;;2.87;2.30;;;19.70;70.00;;;;;;5093378;28;20095;-33
2023/10/29 11:30:29;;;;;;;;;;;19.70;70.10;;;;;;5101109;28;21126;-33
2023/10/29 11:33:17;;;;;;;2.95;2.20;;;19.70;70.00;;;;;;5092855;28;19912;-33
2023/10/29 11:35:43;;;;;;;2.72;2.30;;;19.70;70.10;;;;;;5090945;28;20658;-33
2023/10/29 11:38:29;;;;;;;4.97;2.45;;;19.70;70.20;;;;;;5092074;28;20032;-33
2023/10/29 11:40:59;;;;;;;3.38;2.35;;;19.70;70.20;;;;;;5100240;28;20032;-33
2023/10/29 11:43:25;;;;;;;3.05;2.72;;;19.70;70.30;;;;;;5100497;28;20059;-33
2023/10/29 11:46:01;;;;;;;3.47;2.83;;;19.60;70.20;;;;;;5094753;28;20032;-33
2023/10/29 11:48:30;;;;;;;;;;;19.60;70.20;;;;;;5087340;28;20048;-33
2023/10/29 11:51:10;;;;;;;2.47;2.28;;;19.60;70.20;;;;;;5093222;28;19919;-33
2023/10/29 11:53:37;;;;;;;3.20;2.38;;;19.60;70.20;;;;;;5102110;28;20401;-33
2023/10/29 11:56:09;;;;;;;3.25;2.92;;;19.60;70.20;;;;;;5100381;28;20024;-33
2023/10/29 11:58:36;;;;;;;4.88;2.80;;;19.60;70.30;;;;;;5099961;28;20039;-33
2023/10/29 12:01:03;;;;;;;3.40;2.53;;;19.60;70.30;;;;;;5086832;28;20043;-34
2023/10/29 12:03:32;;;;;;;4.45;2.40;;;19.60;70.30;;;;;;5092420;28;20040;-33
2023/10/29 12:05:58;;;;;;;3.20;2.67;;;19.60;70.30;;;;;;5089092;28;20028;-33
2023/10/29 12:08:25;;;;;;;2.67;2.47;;;19.60;70.30;;;;;;5102730;28;20032;-34
2023/10/29 12:10:53;;;;;;;3.90;2.75;;;19.50;70.30;;;;;;5096179;28;20024;-33
2023/10/29 12:13:19;;;;;;;4.40;2.30;;;19.50;70.30;;;;;;5092097;28;20035;-33
2023/10/29 12:15:47;;;;;;;3.22;2.80;;;19.50;70.30;;;;;;5098012;28;20038;-33
2023/10/29 12:18:20;;;;;;;2.70;2.38;;;19.50;70.40;;;;;;5101470;28;20035;-34
2023/10/29 12:20:49;;;;;;;3.75;2.65;;;19.50;70.40;;;;;;5096786;28;20028;-34
2023/10/29 12:23:16;;;;;;;2.92;2.63;;;19.50;70.30;;;;;;5105133;28;20040;-34
2023/10/29 12:25:43;;;;;;;3.17;2.50;;;19.50;70.30;;;;;;5097251;28;20649;-34
2023/10/29 12:28:09;;;;;;;;;;;19.50;70.40;;;;;;5099721;28;20032;-34
2023/10/29 12:30:41;;;;;;;4.97;2.60;;;19.50;70.40;;;;;;5098734;28;19912;-34
2023/10/29 12:33:25;;;;;;;3.00;2.70;;;19.50;70.40;;;;;;5100561;28;20114;-34
2023/10/29 12:35:56;;;;;;;2.97;2.47;;;19.50;70.40;;;;;;5091880;28;20024;-34
2023/10/29 12:38:23;;;;;;;2.50;2.28;;;19.50;70.50;;;;;;5086813;28;20029;-34
2023/10/29 12:41:14;;;;;;;3.22;2.70;;;19.50;70.50;;;;;;5091581;28;20020;-34
2023/10/29 12:43:44;;;;;;;4.00;2.70;;;19.40;70.40;;;;;;5096401;28;20039;-34
2023/10/29 12:46:12;;;;;;;3.10;2.70;;;19.40;70.40;;;;;;5100900;28;20032;-35
2023/10/29 12:49:03;;;;;;;;;;;19.40;71.20;;;;;;5090355;28;20691;-34